Terminal Aerodrome Forecast
Issued by NWS Topeka, KS

Home | Current Version | Previous Version | Text Only | Print | Product List | Glossary On
Versions: 1 2 3 4 5 6 7 8 9 10 11 12 13 14 15
000
FTUS43 KTOP 211100
TAFTOP
TAF
KTOP 211132Z 2112/2212 29004KT P6SM BKN100
     FM211800 26011G20KT P6SM SCT090
     FM220100 25008KT P6SM FEW090
     FM220400 01010KT P6SM SCT090=

USA.gov is the U.S. government's official web portal to all federal, state and local government web resources and services.